sensor_id;sensor_type;location;lat;lon;timestamp;P1;durP1;ratioP1;P2;durP2;ratioP2
2061;SDS011;11070;51.336;12.340;2023-12-20T00:00:34;8.23;;;7.20;;
2061;SDS011;11070;51.336;12.340;2023-12-20T00:03:02;9.38;;;7.45;;
2061;SDS011;11070;51.336;12.340;2023-12-20T00:05:28;7.93;;;6.90;;
2061;SDS011;11070;51.336;12.340;2023-12-20T00:07:54;9.37;;;6.33;;
2061;SDS011;11070;51.336;12.340;2023-12-20T00:10:19;9.50;;;7.20;;
2061;SDS011;11070;51.336;12.340;2023-12-20T00:12:45;7.20;;;6.50;;
2061;SDS011;11070;51.336;12.340;2023-12-20T00:15:11;7.63;;;6.80;;
2061;SDS011;11070;51.336;12.340;2023-12-20T00:17:36;8.37;;;6.40;;
2061;SDS011;11070;51.336;12.340;2023-12-20T00:20:02;7.43;;;6.60;;
2061;SDS011;11070;51.336;12.340;2023-12-20T00:22:28;7.23;;;6.00;;
2061;SDS011;11070;51.336;12.340;2023-12-20T00:24:53;9.33;;;6.60;;
2061;SDS011;11070;51.336;12.340;2023-12-20T00:27:19;7.00;;;5.80;;
2061;SDS011;11070;51.336;12.340;2023-12-20T00:29:45;8.03;;;6.87;;
2061;SDS011;11070;51.336;12.340;2023-12-20T00:32:14;6.22;;;5.63;;
2061;SDS011;11070;51.336;12.340;2023-12-20T00:34:40;7.03;;;6.00;;
2061;SDS011;11070;51.336;12.340;2023-12-20T00:37:06;5.73;;;5.10;;
2061;SDS011;11070;51.336;12.340;2023-12-20T00:39:31;6.50;;;5.80;;
2061;SDS011;11070;51.336;12.340;2023-12-20T00:41:58;6.28;;;5.68;;
2061;SDS011;11070;51.336;12.340;2023-12-20T00:44:23;7.17;;;6.00;;
2061;SDS011;11070;51.336;12.340;2023-12-20T00:46:49;6.47;;;5.77;;
2061;SDS011;11070;51.336;12.340;2023-12-20T00:49:15;6.50;;;5.70;;
2061;SDS011;11070;51.336;12.340;2023-12-20T00:51:40;5.70;;;5.20;;
2061;SDS011;11070;51.336;12.340;2023-12-20T00:54:06;5.13;;;4.63;;
2061;SDS011;11070;51.336;12.340;2023-12-20T00:56:31;5.40;;;4.53;;
2061;SDS011;11070;51.336;12.340;2023-12-20T00:58:57;6.13;;;4.53;;
2061;SDS011;11070;51.336;12.340;2023-12-20T01:01:23;4.47;;;4.07;;
2061;SDS011;11070;51.336;12.340;2023-12-20T01:03:48;5.00;;;4.60;;
2061;SDS011;11070;51.336;12.340;2023-12-20T01:06:16;5.05;;;4.53;;
2061;SDS011;11070;51.336;12.340;2023-12-20T01:08:42;4.50;;;4.10;;
2061;SDS011;11070;51.336;12.340;2023-12-20T01:11:07;4.77;;;4.30;;
2061;SDS011;11070;51.336;12.340;2023-12-20T01:13:33;3.73;;;3.43;;
2061;SDS011;11070;51.336;12.340;2023-12-20T01:15:59;6.10;;;4.13;;
2061;SDS011;11070;51.336;12.340;2023-12-20T01:18:24;3.93;;;3.50;;
2061;SDS011;11070;51.336;12.340;2023-12-20T01:20:50;3.93;;;3.63;;
2061;SDS011;11070;51.336;12.340;2023-12-20T01:23:16;5.00;;;4.33;;
2061;SDS011;11070;51.336;12.340;2023-12-20T01:25:41;4.30;;;3.90;;
2061;SDS011;11070;51.336;12.340;2023-12-20T01:28:08;4.20;;;3.72;;
2061;SDS011;11070;51.336;12.340;2023-12-20T01:30:34;4.03;;;3.70;;
2061;SDS011;11070;51.336;12.340;2023-12-20T01:33:00;3.97;;;3.67;;
2061;SDS011;11070;51.336;12.340;2023-12-20T01:35:26;3.90;;;3.53;;
2061;SDS011;11070;51.336;12.340;2023-12-20T01:37:52;3.57;;;3.27;;
2061;SDS011;11070;51.336;12.340;2023-12-20T01:40:21;3.35;;;3.10;;
2061;SDS011;11070;51.336;12.340;2023-12-20T01:43:06;2.90;;;2.70;;
2061;SDS011;11070;51.336;12.340;2023-12-20T01:45:33;4.80;;;3.40;;
2061;SDS011;11070;51.336;12.340;2023-12-20T01:47:59;3.40;;;3.10;;
2061;SDS011;11070;51.336;12.340;2023-12-20T01:50:27;3.70;;;3.40;;
2061;SDS011;11070;51.336;12.340;2023-12-20T01:52:53;3.30;;;3.08;;
2061;SDS011;11070;51.336;12.340;2023-12-20T01:55:23;3.42;;;3.13;;
2061;SDS011;11070;51.336;12.340;2023-12-20T01:57:50;3.50;;;3.03;;
2061;SDS011;11070;51.336;12.340;2023-12-20T02:00:16;3.20;;;3.00;;
2061;SDS011;11070;51.336;12.340;2023-12-20T02:02:43;3.30;;;3.10;;
2061;SDS011;11070;51.336;12.340;2023-12-20T02:05:10;4.18;;;3.25;;
2061;SDS011;11070;51.336;12.340;2023-12-20T02:07:36;4.60;;;3.20;;
2061;SDS011;11070;51.336;12.340;2023-12-20T02:10:02;3.10;;;2.90;;
2061;SDS011;11070;51.336;12.340;2023-12-20T02:12:29;3.83;;;3.45;;
2061;SDS011;11070;51.336;12.340;2023-12-20T02:14:55;3.50;;;3.20;;
2061;SDS011;11070;51.336;12.340;2023-12-20T02:17:21;3.20;;;3.00;;
2061;SDS011;11070;51.336;12.340;2023-12-20T02:19:48;4.75;;;3.20;;
2061;SDS011;11070;51.336;12.340;2023-12-20T02:22:14;3.97;;;3.38;;
2061;SDS011;11070;51.336;12.340;2023-12-20T02:24:40;3.80;;;3.50;;
2061;SDS011;11070;51.336;12.340;2023-12-20T02:27:06;3.00;;;2.80;;
2061;SDS011;11070;51.336;12.340;2023-12-20T02:29:33;3.47;;;3.17;;
2061;SDS011;11070;51.336;12.340;2023-12-20T02:31:59;3.72;;;3.42;;
2061;SDS011;11070;51.336;12.340;2023-12-20T02:34:25;3.80;;;3.50;;
2061;SDS011;11070;51.336;12.340;2023-12-20T02:36:51;3.63;;;3.33;;
2061;SDS011;11070;51.336;12.340;2023-12-20T02:39:18;4.10;;;3.70;;
2061;SDS011;11070;51.336;12.340;2023-12-20T02:41:44;4.50;;;3.38;;
2061;SDS011;11070;51.336;12.340;2023-12-20T02:44:10;3.70;;;3.30;;
2061;SDS011;11070;51.336;12.340;2023-12-20T02:46:35;3.23;;;3.00;;
2061;SDS011;11070;51.336;12.340;2023-12-20T02:49:01;3.53;;;3.23;;
2061;SDS011;11070;51.336;12.340;2023-12-20T02:51:27;3.47;;;3.17;;
2061;SDS011;11070;51.336;12.340;2023-12-20T02:53:52;3.03;;;2.80;;
2061;SDS011;11070;51.336;12.340;2023-12-20T02:56:18;3.13;;;2.90;;
2061;SDS011;11070;51.336;12.340;2023-12-20T02:58:44;4.10;;;3.30;;
2061;SDS011;11070;51.336;12.340;2023-12-20T03:01:09;3.50;;;3.20;;
2061;SDS011;11070;51.336;12.340;2023-12-20T03:03:35;3.20;;;2.90;;
2061;SDS011;11070;51.336;12.340;2023-12-20T03:06:01;3.77;;;3.37;;
2061;SDS011;11070;51.336;12.340;2023-12-20T03:08:26;3.27;;;3.07;;
2061;SDS011;11070;51.336;12.340;2023-12-20T03:10:52;3.80;;;3.50;;
2061;SDS011;11070;51.336;12.340;2023-12-20T03:13:18;3.20;;;2.90;;
2061;SDS011;11070;51.336;12.340;2023-12-20T03:15:44;3.60;;;3.30;;
2061;SDS011;11070;51.336;12.340;2023-12-20T03:18:10;3.65;;;3.35;;
2061;SDS011;11070;51.336;12.340;2023-12-20T03:20:36;3.40;;;3.10;;
2061;SDS011;11070;51.336;12.340;2023-12-20T03:23:02;3.60;;;3.30;;
2061;SDS011;11070;51.336;12.340;2023-12-20T03:25:28;3.60;;;3.30;;
2061;SDS011;11070;51.336;12.340;2023-12-20T03:27:54;3.50;;;3.20;;
2061;SDS011;11070;51.336;12.340;2023-12-20T03:30:20;3.73;;;3.43;;
2061;SDS011;11070;51.336;12.340;2023-12-20T03:32:45;3.50;;;3.20;;
2061;SDS011;11070;51.336;12.340;2023-12-20T03:35:12;3.60;;;3.30;;
2061;SDS011;11070;51.336;12.340;2023-12-20T03:37:37;3.90;;;3.50;;
2061;SDS011;11070;51.336;12.340;2023-12-20T03:40:03;3.40;;;3.10;;
2061;SDS011;11070;51.336;12.340;2023-12-20T03:42:30;3.30;;;3.00;;
2061;SDS011;11070;51.336;12.340;2023-12-20T03:44:55;3.87;;;3.47;;
2061;SDS011;11070;51.336;12.340;2023-12-20T03:47:21;3.80;;;3.50;;
2061;SDS011;11070;51.336;12.340;2023-12-20T03:49:47;4.83;;;4.40;;
2061;SDS011;11070;51.336;12.340;2023-12-20T03:52:14;4.80;;;4.40;;
2061;SDS011;11070;51.336;12.340;2023-12-20T03:54:39;4.20;;;3.80;;
2061;SDS011;11070;51.336;12.340;2023-12-20T03:57:07;4.20;;;3.90;;
2061;SDS011;11070;51.336;12.340;2023-12-20T03:59:36;5.07;;;3.77;;
2061;SDS011;11070;51.336;12.340;2023-12-20T04:02:02;4.50;;;3.85;;
2061;SDS011;11070;51.336;12.340;2023-12-20T04:04:29;4.55;;;4.15;;
2061;SDS011;11070;51.336;12.340;2023-12-20T04:06:54;4.10;;;3.80;;
2061;SDS011;11070;51.336;12.340;2023-12-20T04:09:20;4.30;;;3.90;;
2061;SDS011;11070;51.336;12.340;2023-12-20T04:11:46;5.43;;;4.70;;
2061;SDS011;11070;51.336;12.340;2023-12-20T04:14:12;4.80;;;4.23;;
2061;SDS011;11070;51.336;12.340;2023-12-20T04:16:37;6.00;;;5.00;;
2061;SDS011;11070;51.336;12.340;2023-12-20T04:19:04;5.25;;;4.75;;
2061;SDS011;11070;51.336;12.340;2023-12-20T04:21:29;6.70;;;5.43;;
2061;SDS011;11070;51.336;12.340;2023-12-20T04:23:55;5.20;;;4.73;;
2061;SDS011;11070;51.336;12.340;2023-12-20T04:26:21;6.13;;;4.90;;
2061;SDS011;11070;51.336;12.340;2023-12-20T04:28:46;5.60;;;5.10;;
2061;SDS011;11070;51.336;12.340;2023-12-20T04:31:12;5.73;;;5.13;;
2061;SDS011;11070;51.336;12.340;2023-12-20T04:33:38;6.17;;;5.57;;
2061;SDS011;11070;51.336;12.340;2023-12-20T04:36:04;7.20;;;5.07;;
2061;SDS011;11070;51.336;12.340;2023-12-20T04:38:30;6.30;;;5.30;;
2061;SDS011;11070;51.336;12.340;2023-12-20T04:40:55;5.97;;;5.10;;
2061;SDS011;11070;51.336;12.340;2023-12-20T04:43:21;5.50;;;4.83;;
2061;SDS011;11070;51.336;12.340;2023-12-20T04:45:47;5.80;;;5.20;;
2061;SDS011;11070;51.336;12.340;2023-12-20T04:48:12;5.93;;;5.33;;
2061;SDS011;11070;51.336;12.340;2023-12-20T04:50:38;5.90;;;4.90;;
2061;SDS011;11070;51.336;12.340;2023-12-20T04:53:04;5.70;;;5.20;;
2061;SDS011;11070;51.336;12.340;2023-12-20T04:55:29;5.97;;;5.37;;
2061;SDS011;11070;51.336;12.340;2023-12-20T04:57:55;6.63;;;5.93;;
2061;SDS011;11070;51.336;12.340;2023-12-20T05:00:21;6.13;;;5.53;;
2061;SDS011;11070;51.336;12.340;2023-12-20T05:02:47;6.27;;;5.67;;
2061;SDS011;11070;51.336;12.340;2023-12-20T05:05:13;6.90;;;5.80;;
2061;SDS011;11070;51.336;12.340;2023-12-20T05:07:40;6.55;;;5.90;;
2061;SDS011;11070;51.336;12.340;2023-12-20T05:10:06;7.50;;;6.77;;
2061;SDS011;11070;51.336;12.340;2023-12-20T05:12:33;8.27;;;7.00;;
2061;SDS011;11070;51.336;12.340;2023-12-20T05:14:59;7.90;;;7.10;;
2061;SDS011;11070;51.336;12.340;2023-12-20T05:17:25;8.17;;;7.37;;
2061;SDS011;11070;51.336;12.340;2023-12-20T05:19:51;9.00;;;6.97;;
2061;SDS011;11070;51.336;12.340;2023-12-20T05:22:17;8.00;;;7.15;;
2061;SDS011;11070;51.336;12.340;2023-12-20T05:24:44;10.07;;;8.55;;
2061;SDS011;11070;51.336;12.340;2023-12-20T05:27:10;8.67;;;7.20;;
2061;SDS011;11070;51.336;12.340;2023-12-20T05:29:36;9.50;;;8.13;;
2061;SDS011;11070;51.336;12.340;2023-12-20T05:32:02;9.10;;;8.10;;
2061;SDS011;11070;51.336;12.340;2023-12-20T05:34:29;8.98;;;7.85;;
2061;SDS011;11070;51.336;12.340;2023-12-20T05:36:55;8.83;;;7.90;;
2061;SDS011;11070;51.336;12.340;2023-12-20T05:39:21;10.33;;;8.70;;
2061;SDS011;11070;51.336;12.340;2023-12-20T05:41:47;10.90;;;9.23;;
2061;SDS011;11070;51.336;12.340;2023-12-20T05:44:13;13.07;;;10.40;;
2061;SDS011;11070;51.336;12.340;2023-12-20T05:46:38;12.77;;;10.23;;
2061;SDS011;11070;51.336;12.340;2023-12-20T05:49:05;12.85;;;9.98;;
2061;SDS011;11070;51.336;12.340;2023-12-20T05:51:31;14.47;;;11.37;;
2061;SDS011;11070;51.336;12.340;2023-12-20T05:53:56;14.70;;;11.27;;
2061;SDS011;11070;51.336;12.340;2023-12-20T05:56:22;14.10;;;11.50;;
2061;SDS011;11070;51.336;12.340;2023-12-20T05:58:48;13.70;;;11.13;;
2061;SDS011;11070;51.336;12.340;2023-12-20T06:01:16;12.67;;;10.27;;
2061;SDS011;11070;51.336;12.340;2023-12-20T06:03:42;11.40;;;10.20;;
2061;SDS011;11070;51.336;12.340;2023-12-20T06:06:08;13.00;;;10.38;;
2061;SDS011;11070;51.336;12.340;2023-12-20T06:08:34;11.40;;;9.55;;
2061;SDS011;11070;51.336;12.340;2023-12-20T06:11:00;13.15;;;9.50;;
2061;SDS011;11070;51.336;12.340;2023-12-20T06:13:26;10.50;;;8.57;;
2061;SDS011;11070;51.336;12.340;2023-12-20T06:15:53;9.57;;;8.17;;
2061;SDS011;11070;51.336;12.340;2023-12-20T06:18:20;8.38;;;7.28;;
2061;SDS011;11070;51.336;12.340;2023-12-20T06:20:45;10.10;;;7.77;;
2061;SDS011;11070;51.336;12.340;2023-12-20T06:23:11;7.73;;;6.93;;
2061;SDS011;11070;51.336;12.340;2023-12-20T06:25:37;9.00;;;6.10;;
2061;SDS011;11070;51.336;12.340;2023-12-20T06:28:02;7.73;;;6.60;;
2061;SDS011;11070;51.336;12.340;2023-12-20T06:30:28;8.67;;;6.30;;
2061;SDS011;11070;51.336;12.340;2023-12-20T06:32:54;7.43;;;6.13;;
2061;SDS011;11070;51.336;12.340;2023-12-20T06:35:22;10.65;;;7.22;;
2061;SDS011;11070;51.336;12.340;2023-12-20T06:37:48;8.17;;;6.90;;
2061;SDS011;11070;51.336;12.340;2023-12-20T06:40:14;8.30;;;6.90;;
2061;SDS011;11070;51.336;12.340;2023-12-20T06:42:39;6.60;;;5.60;;
2061;SDS011;11070;51.336;12.340;2023-12-20T06:45:05;6.57;;;5.73;;
2061;SDS011;11070;51.336;12.340;2023-12-20T06:47:31;6.17;;;5.30;;
2061;SDS011;11070;51.336;12.340;2023-12-20T06:49:57;7.30;;;5.80;;
2061;SDS011;11070;51.336;12.340;2023-12-20T06:52:23;6.97;;;5.73;;
2061;SDS011;11070;51.336;12.340;2023-12-20T06:54:48;6.17;;;5.57;;
2061;SDS011;11070;51.336;12.340;2023-12-20T06:57:14;6.67;;;5.03;;
2061;SDS011;11070;51.336;12.340;2023-12-20T06:59:42;5.00;;;4.07;;
2061;SDS011;11070;51.336;12.340;2023-12-20T07:02:09;5.60;;;5.00;;
2061;SDS011;11070;51.336;12.340;2023-12-20T07:04:38;5.03;;;4.53;;
2061;SDS011;11070;51.336;12.340;2023-12-20T07:07:05;5.82;;;4.82;;
2061;SDS011;11070;51.336;12.340;2023-12-20T07:09:32;5.05;;;4.38;;
2061;SDS011;11070;51.336;12.340;2023-12-20T07:11:58;6.35;;;4.80;;
2061;SDS011;11070;51.336;12.340;2023-12-20T07:14:24;4.70;;;4.23;;
2061;SDS011;11070;51.336;12.340;2023-12-20T07:16:49;4.83;;;4.40;;
2061;SDS011;11070;51.336;12.340;2023-12-20T07:19:15;6.10;;;3.77;;
2061;SDS011;11070;51.336;12.340;2023-12-20T07:21:41;3.40;;;3.10;;
2061;SDS011;11070;51.336;12.340;2023-12-20T07:24:07;3.90;;;3.23;;
2061;SDS011;11070;51.336;12.340;2023-12-20T07:26:32;3.30;;;2.93;;
2061;SDS011;11070;51.336;12.340;2023-12-20T07:28:59;3.22;;;2.80;;
2061;SDS011;11070;51.336;12.340;2023-12-20T07:31:24;2.77;;;2.57;;
2061;SDS011;11070;51.336;12.340;2023-12-20T07:33:50;3.10;;;2.73;;
2061;SDS011;11070;51.336;12.340;2023-12-20T07:36:16;4.23;;;3.20;;
2061;SDS011;11070;51.336;12.340;2023-12-20T07:38:41;3.73;;;3.00;;
2061;SDS011;11070;51.336;12.340;2023-12-20T07:41:09;5.40;;;3.05;;
2061;SDS011;11070;51.336;12.340;2023-12-20T07:43:35;6.35;;;3.00;;
2061;SDS011;11070;51.336;12.340;2023-12-20T07:46:05;3.47;;;2.53;;
2061;SDS011;11070;51.336;12.340;2023-12-20T07:48:31;5.93;;;3.10;;
2061;SDS011;11070;51.336;12.340;2023-12-20T07:50:58;4.38;;;3.10;;
2061;SDS011;11070;51.336;12.340;2023-12-20T07:53:24;4.53;;;3.47;;
2061;SDS011;11070;51.336;12.340;2023-12-20T07:55:50;4.00;;;3.33;;
2061;SDS011;11070;51.336;12.340;2023-12-20T07:58:17;5.85;;;3.30;;
2061;SDS011;11070;51.336;12.340;2023-12-20T08:00:43;6.60;;;3.43;;
2061;SDS011;11070;51.336;12.340;2023-12-20T08:03:09;3.50;;;3.00;;
2061;SDS011;11070;51.336;12.340;2023-12-20T08:05:34;3.27;;;2.90;;
2061;SDS011;11070;51.336;12.340;2023-12-20T08:08:00;3.10;;;2.60;;
2061;SDS011;11070;51.336;12.340;2023-12-20T08:10:26;3.40;;;2.77;;
2061;SDS011;11070;51.336;12.340;2023-12-20T08:12:54;2.88;;;2.58;;
2061;SDS011;11070;51.336;12.340;2023-12-20T08:15:20;5.93;;;2.83;;
2061;SDS011;11070;51.336;12.340;2023-12-20T08:17:46;4.23;;;3.10;;
2061;SDS011;11070;51.336;12.340;2023-12-20T08:20:11;4.27;;;2.37;;
2061;SDS011;11070;51.336;12.340;2023-12-20T08:22:37;4.37;;;2.40;;
2061;SDS011;11070;51.336;12.340;2023-12-20T08:25:03;3.83;;;2.97;;
2061;SDS011;11070;51.336;12.340;2023-12-20T08:27:29;4.07;;;2.45;;
2061;SDS011;11070;51.336;12.340;2023-12-20T08:29:56;3.10;;;2.80;;
2061;SDS011;11070;51.336;12.340;2023-12-20T08:32:24;4.43;;;2.40;;
2061;SDS011;11070;51.336;12.340;2023-12-20T08:34:51;3.08;;;2.85;;
2061;SDS011;11070;51.336;12.340;2023-12-20T08:37:17;4.73;;;2.37;;
2061;SDS011;11070;51.336;12.340;2023-12-20T08:39:43;2.50;;;2.30;;
2061;SDS011;11070;51.336;12.340;2023-12-20T08:42:09;13.43;;;9.87;;
2061;SDS011;11070;51.336;12.340;2023-12-20T08:44:34;9.27;;;5.50;;
2061;SDS011;11070;51.336;12.340;2023-12-20T08:47:00;4.53;;;3.23;;
2061;SDS011;11070;51.336;12.340;2023-12-20T08:49:26;7.70;;;4.90;;
2061;SDS011;11070;51.336;12.340;2023-12-20T08:51:53;3.80;;;2.65;;
2061;SDS011;11070;51.336;12.340;2023-12-20T08:54:18;3.20;;;2.80;;
2061;SDS011;11070;51.336;12.340;2023-12-20T08:56:44;7.87;;;4.60;;
2061;SDS011;11070;51.336;12.340;2023-12-20T08:59:11;19.17;;;9.38;;
2061;SDS011;11070;51.336;12.340;2023-12-20T09:01:37;8.02;;;3.85;;
2061;SDS011;11070;51.336;12.340;2023-12-20T09:04:02;5.60;;;3.80;;
2061;SDS011;11070;51.336;12.340;2023-12-20T09:06:28;7.50;;;5.30;;
2061;SDS011;11070;51.336;12.340;2023-12-20T09:08:54;10.73;;;7.03;;
2061;SDS011;11070;51.336;12.340;2023-12-20T09:11:19;6.90;;;5.30;;
2061;SDS011;11070;51.336;12.340;2023-12-20T09:13:45;4.50;;;3.40;;
2061;SDS011;11070;51.336;12.340;2023-12-20T09:16:11;4.23;;;2.83;;
2061;SDS011;11070;51.336;12.340;2023-12-20T09:18:38;2.90;;;2.50;;
2061;SDS011;11070;51.336;12.340;2023-12-20T09:21:03;5.00;;;3.00;;
2061;SDS011;11070;51.336;12.340;2023-12-20T09:23:29;4.17;;;3.63;;
2061;SDS011;11070;51.336;12.340;2023-12-20T09:25:55;5.27;;;2.63;;
2061;SDS011;11070;51.336;12.340;2023-12-20T09:28:20;3.23;;;3.03;;
2061;SDS011;11070;51.336;12.340;2023-12-20T09:30:46;4.00;;;2.80;;
2061;SDS011;11070;51.336;12.340;2023-12-20T09:33:12;4.00;;;3.60;;
2061;SDS011;11070;51.336;12.340;2023-12-20T09:35:39;3.95;;;3.50;;
2061;SDS011;11070;51.336;12.340;2023-12-20T09:38:04;3.63;;;3.10;;
2061;SDS011;11070;51.336;12.340;2023-12-20T09:40:30;3.23;;;2.93;;
2061;SDS011;11070;51.336;12.340;2023-12-20T09:43:08;6.88;;;3.50;;
2061;SDS011;11070;51.336;12.340;2023-12-20T09:45:37;4.95;;;2.92;;
2061;SDS011;11070;51.336;12.340;2023-12-20T09:48:05;3.50;;;3.20;;
2061;SDS011;11070;51.336;12.340;2023-12-20T09:50:32;3.10;;;2.67;;
2061;SDS011;11070;51.336;12.340;2023-12-20T09:52:58;4.43;;;2.80;;
2061;SDS011;11070;51.336;12.340;2023-12-20T09:55:27;3.92;;;2.95;;
2061;SDS011;11070;51.336;12.340;2023-12-20T09:57:55;4.88;;;2.85;;
2061;SDS011;11070;51.336;12.340;2023-12-20T10:00:21;4.87;;;3.00;;
2061;SDS011;11070;51.336;12.340;2023-12-20T10:02:56;5.30;;;3.57;;
2061;SDS011;11070;51.336;12.340;2023-12-20T10:05:26;2.72;;;2.53;;
2061;SDS011;11070;51.336;12.340;2023-12-20T10:07:51;3.47;;;3.15;;
2061;SDS011;11070;51.336;12.340;2023-12-20T10:10:17;3.77;;;3.37;;
2061;SDS011;11070;51.336;12.340;2023-12-20T10:13:00;3.90;;;2.73;;
2061;SDS011;11070;51.336;12.340;2023-12-20T10:15:27;5.43;;;3.05;;
2061;SDS011;11070;51.336;12.340;2023-12-20T10:17:53;3.27;;;2.80;;
2061;SDS011;11070;51.336;12.340;2023-12-20T10:20:19;5.90;;;3.80;;
2061;SDS011;11070;51.336;12.340;2023-12-20T10:22:45;4.27;;;2.80;;
2061;SDS011;11070;51.336;12.340;2023-12-20T10:25:12;6.15;;;3.35;;
2061;SDS011;11070;51.336;12.340;2023-12-20T10:27:38;5.00;;;2.97;;
2061;SDS011;11070;51.336;12.340;2023-12-20T10:30:04;5.20;;;2.30;;
2061;SDS011;11070;51.336;12.340;2023-12-20T10:32:31;4.55;;;2.47;;
2061;SDS011;11070;51.336;12.340;2023-12-20T10:34:56;4.03;;;3.10;;
2061;SDS011;11070;51.336;12.340;2023-12-20T10:37:24;4.85;;;2.90;;
2061;SDS011;11070;51.336;12.340;2023-12-20T10:39:50;2.83;;;2.63;;
2061;SDS011;11070;51.336;12.340;2023-12-20T10:42:21;4.40;;;3.30;;
2061;SDS011;11070;51.336;12.340;2023-12-20T10:44:47;4.70;;;3.42;;
2061;SDS011;11070;51.336;12.340;2023-12-20T10:47:14;4.15;;;2.88;;
2061;SDS011;11070;51.336;12.340;2023-12-20T10:49:41;7.43;;;3.40;;
2061;SDS011;11070;51.336;12.340;2023-12-20T10:52:07;5.70;;;2.70;;
2061;SDS011;11070;51.336;12.340;2023-12-20T10:54:36;6.03;;;3.58;;
2061;SDS011;11070;51.336;12.340;2023-12-20T10:57:03;3.25;;;2.65;;
2061;SDS011;11070;51.336;12.340;2023-12-20T10:59:32;4.90;;;2.53;;
2061;SDS011;11070;51.336;12.340;2023-12-20T11:01:59;3.13;;;2.47;;
2061;SDS011;11070;51.336;12.340;2023-12-20T11:04:37;4.57;;;2.80;;
2061;SDS011;11070;51.336;12.340;2023-12-20T11:10:13;5.22;;;2.67;;
2061;SDS011;11070;51.336;12.340;2023-12-20T11:13:09;2.95;;;2.65;;
2061;SDS011;11070;51.336;12.340;2023-12-20T11:15:46;4.35;;;2.55;;
2061;SDS011;11070;51.336;12.340;2023-12-20T11:18:12;5.38;;;2.53;;
2061;SDS011;11070;51.336;12.340;2023-12-20T11:20:38;5.70;;;2.60;;
2061;SDS011;11070;51.336;12.340;2023-12-20T11:23:05;7.60;;;2.40;;
2061;SDS011;11070;51.336;12.340;2023-12-20T11:28:14;4.13;;;2.53;;
2061;SDS011;11070;51.336;12.340;2023-12-20T11:31:01;4.50;;;2.43;;
2061;SDS011;11070;51.336;12.340;2023-12-20T11:33:29;3.40;;;2.60;;
2061;SDS011;11070;51.336;12.340;2023-12-20T11:35:56;4.65;;;2.88;;
2061;SDS011;11070;51.336;12.340;2023-12-20T11:38:24;4.20;;;2.88;;
2061;SDS011;11070;51.336;12.340;2023-12-20T11:40:50;5.43;;;2.73;;
2061;SDS011;11070;51.336;12.340;2023-12-20T11:43:37;3.50;;;3.15;;
2061;SDS011;11070;51.336;12.340;2023-12-20T11:46:08;2.78;;;2.42;;
2061;SDS011;11070;51.336;12.340;2023-12-20T11:48:35;5.20;;;2.90;;
2061;SDS011;11070;51.336;12.340;2023-12-20T11:51:08;4.65;;;2.55;;
2061;SDS011;11070;51.336;12.340;2023-12-20T11:53:38;2.88;;;2.50;;
2061;SDS011;11070;51.336;12.340;2023-12-20T11:56:08;4.20;;;2.92;;
2061;SDS011;11070;51.336;12.340;2023-12-20T11:58:34;3.97;;;3.00;;
2061;SDS011;11070;51.336;12.340;2023-12-20T12:01:01;4.45;;;2.80;;
2061;SDS011;11070;51.336;12.340;2023-12-20T12:03:27;4.25;;;2.55;;
2061;SDS011;11070;51.336;12.340;2023-12-20T12:05:53;3.90;;;2.43;;
2061;SDS011;11070;51.336;12.340;2023-12-20T12:08:19;3.47;;;3.17;;
2061;SDS011;11070;51.336;12.340;2023-12-20T12:10:44;5.30;;;3.37;;
2061;SDS011;11070;51.336;12.340;2023-12-20T12:13:10;5.50;;;2.97;;
2061;SDS011;11070;51.336;12.340;2023-12-20T12:15:36;4.13;;;2.65;;
2061;SDS011;11070;51.336;12.340;2023-12-20T12:18:02;6.20;;;2.90;;
2061;SDS011;11070;51.336;12.340;2023-12-20T12:20:30;5.07;;;2.80;;
2061;SDS011;11070;51.336;12.340;2023-12-20T12:25:24;3.53;;;2.92;;
2061;SDS011;11070;51.336;12.340;2023-12-20T12:27:51;4.88;;;2.80;;
2061;SDS011;11070;51.336;12.340;2023-12-20T12:30:17;3.40;;;3.00;;
2061;SDS011;11070;51.336;12.340;2023-12-20T12:32:46;5.90;;;2.90;;
2061;SDS011;11070;51.336;12.340;2023-12-20T12:35:11;5.20;;;3.00;;
2061;SDS011;11070;51.336;12.340;2023-12-20T12:37:38;6.23;;;3.00;;
2061;SDS011;11070;51.336;12.340;2023-12-20T12:40:09;4.78;;;3.40;;
2061;SDS011;11070;51.336;12.340;2023-12-20T12:42:36;4.55;;;2.67;;
2061;SDS011;11070;51.336;12.340;2023-12-20T12:45:02;6.57;;;2.63;;
2061;SDS011;11070;51.336;12.340;2023-12-20T12:47:29;4.50;;;2.83;;
2061;SDS011;11070;51.336;12.340;2023-12-20T12:49:55;3.40;;;2.70;;
2061;SDS011;11070;51.336;12.340;2023-12-20T12:52:21;4.90;;;3.05;;
2061;SDS011;11070;51.336;12.340;2023-12-20T12:54:47;4.40;;;3.13;;
2061;SDS011;11070;51.336;12.340;2023-12-20T12:57:14;6.15;;;2.70;;
2061;SDS011;11070;51.336;12.340;2023-12-20T12:59:41;2.45;;;1.95;;
2061;SDS011;11070;51.336;12.340;2023-12-20T13:02:07;4.65;;;2.60;;
2061;SDS011;11070;51.336;12.340;2023-12-20T13:04:33;5.10;;;2.73;;
2061;SDS011;11070;51.336;12.340;2023-12-20T13:06:59;3.00;;;2.40;;
2061;SDS011;11070;51.336;12.340;2023-12-20T13:09:25;3.92;;;2.20;;
2061;SDS011;11070;51.336;12.340;2023-12-20T13:11:50;5.87;;;2.40;;
2061;SDS011;11070;51.336;12.340;2023-12-20T13:14:16;5.33;;;2.37;;
2061;SDS011;11070;51.336;12.340;2023-12-20T13:16:42;4.80;;;2.60;;
2061;SDS011;11070;51.336;12.340;2023-12-20T13:19:08;4.63;;;2.43;;
2061;SDS011;11070;51.336;12.340;2023-12-20T13:21:34;4.22;;;2.60;;
2061;SDS011;11070;51.336;12.340;2023-12-20T13:24:00;2.23;;;2.00;;
2061;SDS011;11070;51.336;12.340;2023-12-20T13:26:26;6.55;;;2.30;;
2061;SDS011;11070;51.336;12.340;2023-12-20T13:28:53;4.87;;;2.80;;
2061;SDS011;11070;51.336;12.340;2023-12-20T13:31:19;3.30;;;2.25;;
2061;SDS011;11070;51.336;12.340;2023-12-20T13:33:45;2.63;;;2.42;;
2061;SDS011;11070;51.336;12.340;2023-12-20T13:36:11;2.60;;;2.40;;
2061;SDS011;11070;51.336;12.340;2023-12-20T13:38:37;4.55;;;2.30;;
2061;SDS011;11070;51.336;12.340;2023-12-20T13:41:03;3.70;;;2.40;;
2061;SDS011;11070;51.336;12.340;2023-12-20T13:43:29;3.03;;;2.40;;
2061;SDS011;11070;51.336;12.340;2023-12-20T13:45:57;2.80;;;2.50;;
2061;SDS011;11070;51.336;12.340;2023-12-20T13:48:23;3.33;;;2.70;;
2061;SDS011;11070;51.336;12.340;2023-12-20T13:50:49;4.40;;;2.37;;
2061;SDS011;11070;51.336;12.340;2023-12-20T13:53:15;2.00;;;1.90;;
2061;SDS011;11070;51.336;12.340;2023-12-20T13:55:41;2.63;;;2.00;;
2061;SDS011;11070;51.336;12.340;2023-12-20T13:58:07;2.60;;;2.40;;
2061;SDS011;11070;51.336;12.340;2023-12-20T14:00:32;2.50;;;2.30;;
2061;SDS011;11070;51.336;12.340;2023-12-20T14:02:58;2.20;;;2.00;;
2061;SDS011;11070;51.336;12.340;2023-12-20T14:05:23;3.27;;;2.47;;
2061;SDS011;11070;51.336;12.340;2023-12-20T14:07:50;4.10;;;2.28;;
2061;SDS011;11070;51.336;12.340;2023-12-20T14:10:16;3.10;;;2.50;;
2061;SDS011;11070;51.336;12.340;2023-12-20T14:12:41;3.60;;;2.30;;
2061;SDS011;11070;51.336;12.340;2023-12-20T14:15:09;5.63;;;2.45;;
2061;SDS011;11070;51.336;12.340;2023-12-20T14:17:39;4.10;;;2.60;;
2061;SDS011;11070;51.336;12.340;2023-12-20T14:20:05;4.07;;;2.60;;
2061;SDS011;11070;51.336;12.340;2023-12-20T14:22:35;2.45;;;2.25;;
2061;SDS011;11070;51.336;12.340;2023-12-20T14:25:01;2.70;;;2.50;;
2061;SDS011;11070;51.336;12.340;2023-12-20T14:27:27;4.40;;;2.50;;
2061;SDS011;11070;51.336;12.340;2023-12-20T14:29:53;3.73;;;2.40;;
2061;SDS011;11070;51.336;12.340;2023-12-20T14:32:19;2.75;;;2.30;;
2061;SDS011;11070;51.336;12.340;2023-12-20T14:34:45;2.00;;;1.90;;
2061;SDS011;11070;51.336;12.340;2023-12-20T14:37:11;2.20;;;2.00;;
2061;SDS011;11070;51.336;12.340;2023-12-20T14:39:37;3.10;;;2.40;;
2061;SDS011;11070;51.336;12.340;2023-12-20T14:42:09;3.65;;;2.20;;
2061;SDS011;11070;51.336;12.340;2023-12-20T14:44:42;2.90;;;2.20;;
2061;SDS011;11070;51.336;12.340;2023-12-20T14:47:08;3.25;;;2.28;;
2061;SDS011;11070;51.336;12.340;2023-12-20T14:49:34;2.97;;;2.40;;